Time;durP1;ratioP1;P1;durP2;ratioP2;P2;SDS_P1;SDS_P2;PMS_P1;PMS_P2;Temp;Humidity;BMP_temperature;BMP_pressure;BME280_temperature;BME280_humidity;BME280_pressure;Samples;Min_cycle;Max_cycle;Signal;HPM_P1;HPM_P2
2023/04/23 00:01:07;;;;;;;102.70;34.50;;;;;;;9.36;74.95;99197.69;79235;1298;3013380;-61
2023/04/23 00:03:37;;;;;;;97.50;32.60;;;;;;;9.30;75.31;99203.30;79262;1298;3011564;-60
2023/04/23 00:06:12;;;;;;;88.60;31.60;;;;;;;9.20;75.82;99206.14;78061;1299;3052384;-62
2023/04/23 00:08:41;;;;;;;49.90;16.30;;;;;;;9.15;76.73;99207.86;78622;1298;3011544;-60
2023/04/23 00:11:09;;;;;;;67.10;21.40;;;;;;;9.69;75.45;99213.38;79257;1299;3013693;-58
2023/04/23 00:13:36;;;;;;;75.10;24.80;;;;;;;10.25;73.44;99215.13;79117;1295;3011516;-58
2023/04/23 00:16:05;;;;;;;72.10;24.30;;;;;;;10.22;72.93;99220.59;78100;1299;3049854;-62
2023/04/23 00:18:32;;;;;;;59.40;19.40;;;;;;;10.18;72.96;99225.38;79173;1297;3013811;-61
2023/04/23 00:20:58;;;;;;;48.60;17.90;;;;;;;9.93;73.79;99223.59;79158;1297;3011911;-57
2023/04/23 00:23:27;;;;;;;41.30;16.10;;;;;;;9.72;74.81;99229.07;77993;1299;3052455;-58
2023/04/23 00:25:53;;;;;;;45.40;16.00;;;;;;;9.59;75.77;99229.52;79279;1295;3013568;-60
2023/04/23 00:28:20;;;;;;;41.30;14.90;;;;;;;9.40;76.80;99232.91;79343;1295;3011666;-62
2023/04/23 00:30:48;;;;;;;38.30;13.60;;;;;;;9.33;77.65;99229.86;77954;1300;3049555;-59
2023/04/23 00:33:15;;;;;;;28.40;11.00;;;;;;;9.20;78.64;99230.95;79242;1300;3018405;-56
2023/04/23 00:35:41;;;;;;;17.60;7.00;;;;;;;9.12;79.44;99230.91;79150;1300;3011885;-60
2023/04/23 00:38:09;;;;;;;16.60;5.90;;;;;;;9.67;78.49;99230.80;78067;1296;3028092;-63
2023/04/23 00:40:36;;;;;;;13.70;5.80;;;;;;;10.16;76.54;99229.34;79127;1300;3021023;-62
2023/04/23 00:43:03;;;;;;;19.40;7.70;;;;;;;10.24;75.73;99232.91;79207;1300;3011869;-59
2023/04/23 00:45:30;;;;;;;14.00;6.10;;;;;;;10.19;75.61;99233.58;78048;1299;3026254;-61
2023/04/23 00:47:57;;;;;;;20.40;7.50;;;;;;;9.97;76.03;99235.61;79227;1298;3018906;-60
2023/04/23 00:50:24;;;;;;;15.90;6.00;;;;;;;9.87;76.39;99233.80;79096;1300;3012695;-60
2023/04/23 00:52:52;;;;;;;11.90;5.40;;;;;;;9.79;76.38;99230.76;77962;1300;3026256;-62
2023/04/23 00:55:20;;;;;;;11.50;5.20;;;;;;;9.68;76.26;99232.84;79268;1299;3013536;-60
2023/04/23 00:57:47;;;;;;;14.60;6.10;;;;;;;9.51;77.23;99229.85;79218;1295;3012032;-61
2023/04/23 01:00:15;;;;;;;13.00;5.20;;;;;;;9.38;77.60;99228.67;77912;1300;3050319;-60
2023/04/23 01:02:42;;;;;;;7.80;2.90;;;;;;;9.30;77.59;99230.55;79216;1299;3013839;-59
2023/04/23 01:05:10;;;;;;;10.20;3.70;;;;;;;9.83;76.22;99232.48;79175;1297;3012303;-58
2023/04/23 01:07:39;;;;;;;13.10;4.30;;;;;;;10.34;73.91;99230.33;78066;1300;3052569;-59
2023/04/23 01:10:07;;;;;;;12.00;5.20;;;;;;;10.44;72.95;99233.05;79155;1300;3011787;-60
2023/04/23 01:12:34;;;;;;;12.30;5.30;;;;;;;10.27;73.07;99237.98;79246;1295;3011382;-59
2023/04/23 01:15:02;;;;;;;13.40;6.30;;;;;;;10.05;73.33;99237.92;77990;1299;3049232;-62
2023/04/23 01:17:29;;;;;;;13.20;6.50;;;;;;;9.75;74.40;99236.75;79292;1296;3013429;-60
2023/04/23 01:19:56;;;;;;;19.90;8.40;;;;;;;9.64;74.93;99240.09;79203;1300;3011863;-59
2023/04/23 01:22:24;;;;;;;20.30;8.20;;;;;;;9.46;75.69;99237.29;77974;1299;3052536;-59
2023/04/23 01:24:51;;;;;;;23.30;9.10;;;;;;;9.32;76.08;99233.24;79278;1300;3013389;-59
2023/04/23 01:27:19;;;;;;;24.60;10.20;;;;;;;9.18;76.73;99235.44;79138;1300;3011673;-60
2023/04/23 01:29:46;;;;;;;26.80;9.60;;;;;;;9.14;76.96;99236.52;77991;1296;3049624;-60
2023/04/23 01:32:13;;;;;;;17.00;6.80;;;;;;;9.13;77.07;99236.09;79199;1299;3018638;-63
2023/04/23 01:34:40;;;;;;;20.80;8.10;;;;;;;9.52;76.26;99235.70;79147;1300;3011730;-60
2023/04/23 01:37:07;;;;;;;20.70;8.90;;;;;;;10.17;74.31;99234.20;77943;1300;3028994;-60
2023/04/23 01:39:35;;;;;;;24.50;10.30;;;;;;;10.31;73.29;99235.98;79225;1300;3013653;-60
2023/04/23 01:42:02;;;;;;;29.10;12.50;;;;;;;10.12;73.10;99234.86;79122;1300;3011848;-59
2023/04/23 01:44:30;;;;;;;32.40;11.10;;;;;;;10.01;73.07;99229.96;75772;1298;3049800;-57
2023/04/23 01:46:57;;;;;;;21.30;9.20;;;;;;;9.81;73.11;99232.92;79174;1297;3012656;-60
2023/04/23 01:49:24;;;;;;;20.30;8.50;;;;;;;9.49;73.75;99232.72;79118;1302;3013270;-62
2023/04/23 01:51:51;;;;;;;19.80;8.20;;;;;;;9.38;73.87;99234.09;77926;1300;3028720;-61
2023/04/23 01:54:18;;;;;;;16.00;7.60;;;;;;;9.19;74.66;99231.18;79257;1300;3013555;-58
2023/04/23 01:56:45;;;;;;;16.50;7.50;;;;;;;9.13;74.75;99226.82;79141;1300;3013252;-59
2023/04/23 01:59:13;;;;;;;14.50;6.20;;;;;;;9.03;74.67;99228.78;78064;1299;3026627;-61
2023/04/23 02:01:42;;;;;;;15.20;6.10;;;;;;;9.03;74.79;99230.21;79158;1300;3019277;-60
2023/04/23 02:04:09;;;;;;;13.70;5.70;;;;;;;9.00;74.43;99230.70;79179;1298;3011917;-59
2023/04/23 02:06:38;;;;;;;14.40;5.90;;;;;;;8.91;74.74;99232.80;78027;1300;3053295;-59
2023/04/23 02:09:05;;;;;;;15.00;5.30;;;;;;;8.94;74.32;99229.65;79422;1300;3012888;-61
2023/04/23 02:11:31;;;;;;;16.90;5.30;;;;;;;9.60;72.73;99228.74;79160;1299;3013447;-59
2023/04/23 02:14:00;;;;;;;14.60;5.80;;;;;;;10.11;70.55;99231.79;78039;1299;3049057;-59
2023/04/23 02:16:27;;;;;;;20.10;7.90;;;;;;;10.14;70.31;99230.90;79180;1298;3013808;-63
2023/04/23 02:18:54;;;;;;;23.20;8.80;;;;;;;10.01;70.79;99234.48;79260;1298;3013237;-62
2023/04/23 02:21:23;;;;;;;25.00;8.70;;;;;;;9.87;70.66;99236.94;78010;1299;3053674;-58
2023/04/23 02:23:51;;;;;;;25.80;10.20;;;;;;;9.62;71.46;99235.44;79281;1294;3013091;-59
2023/04/23 02:26:17;;;;;;;27.30;10.30;;;;;;;9.38;72.04;99235.86;79258;1294;3011602;-61
2023/04/23 02:28:45;;;;;;;20.80;9.10;;;;;;;9.28;72.15;99237.64;77988;1300;3049520;-63
2023/04/23 02:31:12;;;;;;;22.00;8.10;;;;;;;9.23;71.87;99232.89;79070;1298;3013737;-58
2023/04/23 02:33:41;;;;;;;14.20;7.20;;;;;;;9.19;71.25;99231.35;79181;1297;3011658;-60
2023/04/23 02:36:12;;;;;;;15.20;7.30;;;;;;;9.20;70.83;99228.67;77925;1299;3052827;-61
2023/04/23 02:38:44;;;;;;;20.00;9.00;;;;;;;9.22;70.49;99231.02;79211;1295;3011644;-58
2023/04/23 02:41:12;;;;;;;28.10;11.70;;;;;;;9.18;70.71;99234.08;78013;1296;3051593;-61
2023/04/23 02:43:38;;;;;;;22.50;10.40;;;;;;;9.17;70.63;99237.24;79216;1296;3013416;-58
2023/04/23 02:46:08;;;;;;;22.10;10.10;;;;;;;9.22;70.24;99241.13;79202;1295;3011392;-63
2023/04/23 02:48:39;;;;;;;23.80;12.00;;;;;;;9.17;70.62;99242.67;77960;1300;3049644;-60
2023/04/23 02:51:08;;;;;;;27.20;11.50;;;;;;;9.15;70.67;99246.30;79308;1300;3013042;-61
2023/04/23 02:53:36;;;;;;;26.10;12.30;;;;;;;9.15;70.47;99248.17;78663;1295;3012863;-60
2023/04/23 02:56:03;;;;;;;24.50;11.70;;;;;;;9.15;70.71;99252.23;79204;1299;3013217;-59
2023/04/23 02:58:30;;;;;;;24.80;9.50;;;;;;;9.05;71.48;99262.21;79259;1299;3012839;-62
2023/04/23 03:00:59;;;;;;;17.60;9.00;;;;;;;9.01;71.86;99259.83;78051;1298;3049951;-61
2023/04/23 03:03:30;;;;;;;17.40;8.10;;;;;;;8.97;72.22;99260.23;79313;1298;3013419;-61
2023/04/23 03:05:59;;;;;;;23.70;8.70;;;;;;;8.96;72.23;99259.08;77929;1300;3053053;-59
2023/04/23 03:08:26;;;;;;;23.80;10.10;;;;;;;8.97;71.96;99260.58;79382;1300;3013358;-57
2023/04/23 03:10:54;;;;;;;28.40;11.90;;;;;;;8.99;71.64;99264.45;79289;1295;3013242;-60
2023/04/23 03:13:22;;;;;;;22.80;11.10;;;;;;;8.99;71.58;99264.34;77955;1299;3056382;-61
2023/04/23 03:15:49;;;;;;;13.50;5.80;;;;;;;9.01;71.93;99269.80;79147;1294;3018575;-59
2023/04/23 03:18:15;;;;;;;13.70;6.60;;;;;;;9.59;71.25;99271.86;79190;1296;3011849;-58
2023/04/23 03:20:44;;;;;;;13.80;6.90;;;;;;;10.31;69.23;99274.52;78056;1300;3026112;-61
2023/04/23 03:23:10;;;;;;;13.00;7.40;;;;;;;10.54;68.92;99277.24;79198;1300;3013486;-59
2023/04/23 03:25:37;;;;;;;18.60;8.40;;;;;;;10.54;68.89;99282.69;79279;1300;3011708;-60
2023/04/23 03:28:05;;;;;;;17.50;7.30;;;;;;;10.36;68.17;99280.66;77948;1300;3026090;-60
2023/04/23 03:30:32;;;;;;;17.90;7.90;;;;;;;10.16;68.06;99283.80;79289;1297;3018494;-60
2023/04/23 03:32:59;;;;;;;18.90;8.00;;;;;;;10.05;68.42;99283.95;79155;1298;3011574;-60
2023/04/23 03:35:27;;;;;;;16.70;7.20;;;;;;;9.98;68.50;99286.31;77989;1300;3052716;-61
2023/04/23 03:37:55;;;;;;;19.20;8.40;;;;;;;9.87;69.14;99296.09;79304;1299;3013827;-62
2023/04/23 03:40:23;;;;;;;19.40;8.60;;;;;;;9.77;70.57;99298.58;79203;1298;3013339;-60
2023/04/23 03:42:53;;;;;;;20.30;8.80;;;;;;;9.66;71.79;99303.76;78155;1299;3056045;-60
2023/04/23 03:45:25;;;;;;;19.00;9.70;;;;;;;9.59;72.28;99305.95;79169;1295;3011857;-62
2023/04/23 03:47:53;;;;;;;18.80;9.40;;;;;;;9.57;72.43;99311.81;77965;1299;3054399;-60
2023/04/23 03:50:20;;;;;;;20.40;8.90;;;;;;;9.59;72.32;99309.45;79183;1299;3013136;-61
2023/04/23 03:52:53;;;;;;;20.80;9.40;;;;;;;9.58;72.44;99311.60;77982;1300;3052966;-61
2023/04/23 03:55:38;;;;;;;20.30;8.90;;;;;;;9.57;72.65;99313.39;77843;1297;3069467;-59
2023/04/23 03:58:04;;;;;;;19.50;8.80;;;;;;;9.59;72.79;99316.62;79165;1298;3013708;-63
2023/04/23 04:00:44;;;;;;;17.20;9.20;;;;;;;9.63;72.70;99314.64;78027;1296;3052121;-62
2023/04/23 04:03:11;;;;;;;14.50;5.70;;;;;;;9.68;72.98;99316.27;79136;1300;3019206;-61
2023/04/23 04:05:37;;;;;;;12.80;6.40;;;;;;;10.27;72.26;99317.44;79140;1297;3011438;-59
2023/04/23 04:08:06;;;;;;;19.10;8.70;;;;;;;11.02;70.53;99327.15;77948;1297;3028955;-63
2023/04/23 04:10:33;;;;;;;19.10;8.10;;;;;;;11.30;69.32;99323.74;79231;1299;3013253;-61
2023/04/23 04:13:00;;;;;;;22.70;9.70;;;;;;;11.25;68.76;99322.34;79217;1297;3012136;-60
2023/04/23 04:15:28;;;;;;;19.10;9.40;;;;;;;11.10;69.09;99335.23;77911;1298;3049020;-63
2023/04/23 04:17:54;;;;;;;20.80;10.30;;;;;;;10.90;69.57;99340.54;79170;1297;3013455;-61
2023/04/23 04:20:21;;;;;;;18.70;9.80;;;;;;;10.79;70.52;99341.73;79133;1294;3011782;-61
2023/04/23 04:22:49;;;;;;;24.20;10.10;;;;;;;10.71;70.67;99344.48;78001;1297;3026642;-64
2023/04/23 04:25:16;;;;;;;21.40;9.90;;;;;;;10.64;70.83;99347.21;79156;1297;3012888;-60
2023/04/23 04:27:43;;;;;;;21.60;10.20;;;;;;;10.59;71.03;99347.38;79197;1299;3011502;-62
2023/04/23 04:30:11;;;;;;;18.30;8.90;;;;;;;10.63;71.01;99350.45;78046;1299;3028385;-59
2023/04/23 04:32:39;;;;;;;19.50;9.90;;;;;;;10.68;70.86;99355.92;79393;1296;3013479;-58
2023/04/23 04:35:07;;;;;;;20.50;10.20;;;;;;;10.73;70.78;99356.64;79162;1299;3011781;-61
2023/04/23 04:37:36;;;;;;;21.50;8.80;;;;;;;10.76;70.72;99358.04;78089;1299;3052617;-60
2023/04/23 04:40:06;;;;;;;22.80;9.60;;;;;;;10.72;69.11;99359.86;79236;1297;3020758;-61
2023/04/23 04:42:35;;;;;;;18.80;9.40;;;;;;;10.75;69.45;99360.92;77999;1300;3057393;-60
2023/04/23 04:45:01;;;;;;;24.30;9.90;;;;;;;10.76;69.38;99361.52;79215;1297;3012918;-58
2023/04/23 04:47:28;;;;;;;25.10;10.90;;;;;;;10.74;68.90;99365.70;79249;1298;3011841;-63
2023/04/23 04:49:56;;;;;;;20.80;9.30;;;;;;;10.75;69.04;99372.32;77971;1300;3051257;-58
2023/04/23 04:52:23;;;;;;;14.30;7.00;;;;;;;10.73;68.88;99372.23;79187;1299;3013811;-60
2023/04/23 04:54:50;;;;;;;18.50;7.40;;;;;;;10.71;68.86;99376.19;79241;1298;3013301;-58
2023/04/23 04:57:20;;;;;;;13.60;6.70;;;;;;;10.85;69.05;99373.27;77845;1298;3026268;-62
2023/04/23 04:59:46;;;;;;;15.90;7.00;;;;;;;10.92;68.66;99377.70;79110;1297;3013175;-58
2023/04/23 05:02:13;;;;;;;12.20;6.10;;;;;;;10.97;67.94;99381.95;79213;1296;3013177;-60
2023/04/23 05:04:41;;;;;;;17.30;6.00;;;;;;;11.01;68.26;99385.36;78071;1295;3052527;-60
2023/04/23 05:07:07;;;;;;;13.00;5.90;;;;;;;11.06;68.06;99387.30;79097;1300;3013027;-60
2023/04/23 05:09:34;;;;;;;14.50;6.50;;;;;;;11.09;67.18;99388.02;79146;1297;3011453;-61
2023/04/23 05:12:02;;;;;;;13.00;6.30;;;;;;;11.14;66.87;99387.75;77919;1296;3028117;-59
2023/04/23 05:14:29;;;;;;;14.70;5.90;;;;;;;11.23;66.89;99389.58;79137;1297;3018316;-58
2023/04/23 05:16:55;;;;;;;11.90;5.50;;;;;;;11.29;65.98;99386.77;79241;1297;3011552;-63
2023/04/23 05:19:23;;;;;;;10.60;5.10;;;;;;;11.36;65.59;99385.43;77904;1300;3026354;-58
2023/04/23 05:21:50;;;;;;;7.90;5.00;;;;;;;11.41;65.52;99384.19;79214;1300;3013950;-61
2023/04/23 05:24:17;;;;;;;10.50;4.50;;;;;;;11.57;65.73;99383.34;79210;1296;3011763;-60
2023/04/23 05:26:45;;;;;;;8.80;3.90;;;;;;;11.68;65.36;99383.29;78121;1296;3057482;-61
2023/04/23 05:29:16;;;;;;;6.10;3.80;;;;;;;11.73;64.85;99388.05;79280;1297;3013060;-62
2023/04/23 05:31:45;;;;;;;6.20;3.80;;;;;;;11.77;63.73;99389.96;78071;1300;3050464;-58
2023/04/23 05:34:11;;;;;;;6.90;4.00;;;;;;;11.82;63.45;99392.80;79232;1300;3013900;-59
2023/04/23 05:36:38;;;;;;;8.80;3.80;;;;;;;11.91;63.25;99389.31;79236;1300;3011710;-59
2023/04/23 05:39:07;;;;;;;10.10;4.20;;;;;;;11.93;62.74;99392.92;77965;1300;3051845;-61
2023/04/23 05:41:33;;;;;;;8.10;4.10;;;;;;;11.95;62.90;99399.42;79243;1297;3013752;-61
2023/04/23 05:44:00;;;;;;;6.90;4.50;;;;;;;11.96;62.79;99402.88;79149;1297;3011587;-59
2023/04/23 05:46:28;;;;;;;6.50;4.00;;;;;;;11.99;63.11;99402.00;78032;1300;3050686;-62
2023/04/23 05:48:54;;;;;;;8.10;4.10;;;;;;;12.04;62.96;99400.05;79159;1300;3013658;-61
2023/04/23 05:51:21;;;;;;;7.80;4.40;;;;;;;12.02;62.79;99403.92;79508;1297;3011492;-61
2023/04/23 05:53:49;;;;;;;6.40;4.50;;;;;;;12.15;62.89;99409.90;77849;1297;3028694;-63
2023/04/23 05:56:16;;;;;;;11.20;5.10;;;;;;;12.29;62.58;99409.98;79056;1297;3019273;-61
2023/04/23 05:58:42;;;;;;;9.10;4.80;;;;;;;12.38;62.22;99412.85;79106;1300;3011445;-60
2023/04/23 06:01:10;;;;;;;8.80;4.50;;;;;;;12.44;61.71;99414.91;78029;1297;3028473;-60
2023/04/23 06:03:37;;;;;;;9.30;5.50;;;;;;;12.52;62.15;99417.71;79276;1300;3013777;-62
2023/04/23 06:06:03;;;;;;;6.70;4.30;;;;;;;12.61;62.25;99419.02;79352;1300;3011891;-60
2023/04/23 06:08:32;;;;;;;14.10;5.60;;;;;;;12.74;61.75;99420.60;78072;1297;3052039;-62
2023/04/23 06:11:00;;;;;;;14.20;5.00;;;;;;;12.80;61.44;99424.36;79257;1296;3020609;-62
2023/04/23 06:13:29;;;;;;;9.40;5.00;;;;;;;12.92;61.44;99428.06;79337;1294;3013571;-62
2023/04/23 06:15:57;;;;;;;11.20;6.30;;;;;;;13.03;61.11;99429.08;78151;1296;3049929;-62
2023/04/23 06:18:24;;;;;;;9.90;5.10;;;;;;;13.10;60.81;99432.98;79295;1300;3012930;-62
2023/04/23 06:20:51;;;;;;;12.90;5.60;;;;;;;13.18;60.27;99434.86;79285;1299;3011565;-61
2023/04/23 06:23:19;;;;;;;9.60;5.60;;;;;;;13.22;59.70;99436.70;78131;1299;3051080;-62
2023/04/23 06:25:45;;;;;;;11.40;5.30;;;;;;;13.23;59.91;99438.54;79355;1298;3012948;-59
2023/04/23 06:28:12;;;;;;;12.80;6.70;;;;;;;13.36;59.65;99445.39;79194;1298;3011599;-59
2023/04/23 06:30:52;;;;;;;9.20;6.10;;;;;;;13.34;59.34;99447.27;78054;1299;3050028;-60
2023/04/23 06:33:18;;;;;;;10.10;5.90;;;;;;;13.41;59.47;99447.67;79300;1300;3013438;-61
2023/04/23 06:35:45;;;;;;;11.60;5.90;;;;;;;13.47;59.72;99446.17;79367;1294;3011639;-59
2023/04/23 06:38:13;;;;;;;9.40;6.10;;;;;;;13.55;59.83;99453.36;78013;1300;3050842;-60
2023/04/23 06:40:40;;;;;;;15.60;6.60;;;;;;;13.61;59.91;99454.65;79574;1296;3011618;-61
2023/04/23 06:43:06;;;;;;;11.50;6.40;;;;;;;13.71;59.66;99452.73;79287;1297;3013348;-60
2023/04/23 06:46:13;;;;;;;10.50;5.90;;;;;;;13.80;58.60;99453.98;77745;1303;3050226;-60
2023/04/23 06:48:40;;;;;;;9.30;5.30;;;;;;;13.84;58.10;99458.46;78818;1305;3013422;-63
2023/04/23 06:51:07;;;;;;;7.80;4.80;;;;;;;13.88;57.31;99465.55;79136;1295;3011537;-61
2023/04/23 06:53:35;;;;;;;8.10;4.10;;;;;;;13.98;56.94;99465.18;77995;1300;3051666;-60
2023/04/23 06:56:02;;;;;;;8.40;4.20;;;;;;;14.07;56.03;99466.39;79317;1296;3012887;-60
2023/04/23 06:58:32;;;;;;;8.50;4.30;;;;;;;14.14;55.50;99466.60;79311;1299;3013156;-56
2023/04/23 07:01:03;;;;;;;6.20;3.70;;;;;;;14.25;56.03;99468.39;78311;1299;3050573;-62
2023/04/23 07:03:30;;;;;;;10.60;4.20;;;;;;;14.32;55.14;99469.13;79303;1300;3013119;-62
2023/04/23 07:05:58;;;;;;;9.90;4.00;;;;;;;14.34;54.84;99469.34;78114;1299;3028078;-62
2023/04/23 07:08:25;;;;;;;9.60;4.20;;;;;;;14.33;54.78;99470.30;79359;1299;3012936;-63
2023/04/23 07:10:52;;;;;;;10.80;4.40;;;;;;;14.40;54.72;99471.15;79369;1294;3013691;-60
2023/04/23 07:13:20;;;;;;;5.90;3.80;;;;;;;14.48;54.96;99470.57;78031;1300;3026473;-62
2023/04/23 07:15:47;;;;;;;8.40;3.80;;;;;;;14.50;54.59;99470.05;79326;1298;3013344;-59
2023/04/23 07:18:14;;;;;;;8.20;4.20;;;;;;;14.58;54.13;99472.77;79377;1294;3011676;-59
2023/04/23 07:20:42;;;;;;;7.40;3.40;;;;;;;14.68;53.28;99472.73;78247;1300;3052708;-62
2023/04/23 07:23:08;;;;;;;6.00;3.70;;;;;;;14.81;53.61;99476.88;79305;1298;3012933;-60
2023/04/23 07:25:36;;;;;;;9.30;3.20;;;;;;;14.89;54.05;99477.48;79396;1303;3011652;-61
2023/04/23 07:28:04;;;;;;;7.10;2.70;;;;;;;15.00;52.62;99477.66;77992;1300;3049502;-61
2023/04/23 07:30:31;;;;;;;9.00;2.60;;;;;;;15.03;51.12;99478.67;81378;1294;3012793;-61
2023/04/23 07:32:57;;;;;;;7.50;2.40;;;;;;;15.11;50.22;99478.76;79388;1295;3012671;-62
2023/04/23 07:35:25;;;;;;;6.70;2.00;;;;;;;15.24;50.03;99479.66;78053;1300;3028762;-59
2023/04/23 07:37:54;;;;;;;7.30;1.70;;;;;;;15.25;48.31;99480.98;79316;1299;3012843;-64
2023/04/23 07:40:21;;;;;;;4.00;1.80;;;;;;;15.21;49.16;99480.91;79218;1294;3011766;-62
2023/04/23 07:42:49;;;;;;;5.30;2.30;;;;;;;15.23;48.94;99483.92;77973;1299;3049626;-63
2023/04/23 07:45:17;;;;;;;7.20;2.20;;;;;;;15.23;49.92;99483.23;79170;1295;3013381;-63
2023/04/23 07:47:45;;;;;;;8.00;3.10;;;;;;;15.22;50.89;99482.50;79329;1295;3013175;-58
2023/04/23 07:50:13;;;;;;;5.10;2.40;;;;;;;15.33;51.88;99484.27;78063;1300;3052958;-61
2023/04/23 07:52:40;;;;;;;10.30;2.40;;;;;;;15.43;52.35;99485.37;79089;1300;3013568;-60
2023/04/23 07:55:07;;;;;;;7.80;2.60;;;;;;;15.50;52.98;99484.09;79349;1298;3011621;-60
2023/04/23 07:57:36;;;;;;;7.60;3.10;;;;;;;15.59;53.31;99481.04;77967;1300;3049534;-60
2023/04/23 08:00:04;;;;;;;8.30;2.80;;;;;;;15.62;52.81;99480.67;79285;1299;3018762;-60
2023/04/23 08:02:39;;;;;;;7.50;2.90;;;;;;;15.63;52.67;99482.69;78069;1300;3052735;-60
2023/04/23 08:05:07;;;;;;;7.60;3.30;;;;;;;15.67;52.64;99484.29;79255;1299;3013624;-60
2023/04/23 08:07:33;;;;;;;7.50;3.20;;;;;;;15.68;51.95;99483.15;79225;1298;3013486;-60
2023/04/23 08:10:04;;;;;;;6.60;3.10;;;;;;;15.83;52.23;99483.19;78164;1299;3057480;-62
2023/04/23 08:12:33;;;;;;;11.70;2.70;;;;;;;15.90;51.15;99484.23;79334;1299;3011596;-63
2023/04/23 08:15:02;;;;;;;6.30;2.60;;;;;;;15.90;49.72;99482.80;78149;1300;3052414;-58
2023/04/23 08:17:33;;;;;;;4.60;2.40;;;;;;;15.98;49.37;99484.47;79252;1297;3013384;-60
2023/04/23 08:20:02;;;;;;;6.30;2.70;;;;;;;16.13;49.34;99483.08;78048;1300;3053124;-60
2023/04/23 08:22:29;;;;;;;4.90;2.60;;;;;;;16.26;48.65;99477.39;79242;1300;3013298;-61
2023/04/23 08:24:55;;;;;;;6.60;2.90;;;;;;;16.45;48.93;99478.77;79423;1295;3011838;-59
2023/04/23 08:27:23;;;;;;;7.10;2.50;;;;;;;16.55;48.31;99479.36;78121;1299;3056366;-60
2023/04/23 08:29:50;;;;;;;4.40;1.90;;;;;;;16.62;47.11;99475.73;79468;1297;3013429;-59
2023/04/23 08:32:17;;;;;;;10.80;2.40;;;;;;;16.73;46.79;99475.01;79359;1297;3013271;-61
2023/04/23 08:34:45;;;;;;;8.50;2.30;;;;;;;16.76;46.33;99476.30;78186;1300;3029079;-65
2023/04/23 08:37:11;;;;;;;11.30;2.40;;;;;;;16.84;47.10;99468.15;79358;1294;3013129;-61
2023/04/23 08:39:38;;;;;;;5.70;2.00;;;;;;;16.85;46.05;99471.65;79186;1296;3011581;-63
2023/04/23 08:42:26;;;;;;;5.10;2.60;;;;;;;16.86;45.73;99472.44;78090;1300;3028879;-60
2023/04/23 08:44:54;;;;;;;3.10;1.90;;;;;;;16.87;45.24;99471.64;78101;1300;3050868;-63
2023/04/23 08:47:21;;;;;;;6.60;2.70;;;;;;;16.99;45.33;99469.08;79325;1300;3012831;-60
2023/04/23 08:49:49;;;;;;;3.90;2.10;;;;;;;17.05;44.69;99466.90;79280;1296;3012982;-59
2023/04/23 08:52:21;;;;;;;4.20;1.80;;;;;;;17.12;43.10;99469.48;78135;1300;3054710;-62
2023/04/23 08:54:49;;;;;;;3.80;1.80;;;;;;;17.26;42.96;99472.38;79195;1297;3011768;-60
2023/04/23 08:57:17;;;;;;;3.00;1.60;;;;;;;17.38;43.64;99468.64;78187;1297;3051294;-60
2023/04/23 08:59:45;;;;;;;5.30;2.10;;;;;;;17.46;44.29;99466.53;79392;1296;3013027;-58
2023/04/23 09:02:13;;;;;;;11.00;2.40;;;;;;;17.49;44.34;99465.94;79182;1300;3013187;-60
2023/04/23 09:04:41;;;;;;;14.30;2.30;;;;;;;17.51;44.75;99463.42;78077;1300;3050715;-60
2023/04/23 09:07:10;;;;;;;8.40;2.60;;;;;;;17.54;43.22;99460.35;79228;1300;3013027;-62
2023/04/23 09:09:40;;;;;;;5.70;1.70;;;;;;;17.54;43.64;99459.81;79187;1296;3011772;-60
2023/04/23 09:12:08;;;;;;;5.90;2.30;;;;;;;17.47;44.02;99461.99;78017;1296;3050922;-62
2023/04/23 09:14:35;;;;;;;8.20;2.20;;;;;;;17.56;43.35;99455.86;79140;1298;3013128;-58
2023/04/23 09:17:01;;;;;;;6.30;2.00;;;;;;;17.64;43.73;99452.02;79099;1297;3011564;-59
2023/04/23 09:19:30;;;;;;;7.00;2.20;;;;;;;17.74;43.21;99451.59;78025;1300;3048809;-61
2023/04/23 09:21:57;;;;;;;5.10;2.00;;;;;;;17.77;42.08;99449.73;79354;1300;3013685;-59
2023/04/23 09:24:24;;;;;;;6.70;2.20;;;;;;;17.86;41.75;99440.92;79336;1297;3011967;-60
2023/04/23 09:26:53;;;;;;;7.80;2.10;;;;;;;17.94;41.42;99439.19;77945;1296;3051367;-60
2023/04/23 09:29:23;;;;;;;9.00;2.00;;;;;;;18.07;40.58;99439.57;79211;1297;3013861;-59
2023/04/23 09:31:57;;;;;;;5.80;2.30;;;;;;;18.05;40.18;99437.84;77943;1300;3051419;-60
2023/04/23 09:34:24;;;;;;;3.80;1.90;;;;;;;18.04;40.51;99438.31;79220;1297;3011613;-61
2023/04/23 09:36:52;;;;;;;6.70;2.00;;;;;;;18.00;41.27;99435.63;77957;1300;3053277;-61
2023/04/23 09:39:22;;;;;;;6.60;2.10;;;;;;;18.00;41.35;99435.48;79233;1300;3019087;-60
2023/04/23 09:41:51;;;;;;;6.30;2.60;;;;;;;18.07;40.93;99431.40;77831;1300;3052277;-61
2023/04/23 09:44:21;;;;;;;6.30;1.90;;;;;;;18.16;41.50;99434.15;79241;1297;3013251;-60
2023/04/23 09:46:49;;;;;;;6.40;2.10;;;;;;;18.30;41.69;99425.97;77987;1300;3052977;-59
2023/04/23 09:49:16;;;;;;;4.90;2.10;;;;;;;18.51;40.77;99425.25;79233;1300;3013737;-61
2023/04/23 09:51:47;;;;;;;8.50;1.90;;;;;;;18.58;39.90;99420.45;79223;1298;3011626;-61
2023/04/23 09:54:20;;;;;;;12.50;2.30;;;;;;;18.71;39.67;99417.98;77992;1303;3068825;-59
2023/04/23 09:56:56;;;;;;;4.70;1.70;;;;;;;18.77;38.93;99421.33;79187;1297;3011908;-63
2023/04/23 09:59:25;;;;;;;8.30;2.10;;;;;;;18.89;38.19;99417.36;78068;1297;3055927;-60
2023/04/23 10:01:52;;;;;;;6.10;2.00;;;;;;;19.07;37.64;99414.46;79178;1302;3011840;-58
2023/04/23 10:04:20;;;;;;;7.30;2.00;;;;;;;19.20;36.74;99412.98;79256;1297;3011784;-62
2023/04/23 10:06:55;;;;;;;6.30;2.10;;;;;;;19.05;35.49;99408.64;77939;1303;3052662;-60
2023/04/23 10:09:25;;;;;;;5.80;2.20;;;;;;;19.01;36.05;99405.77;78615;1301;3011598;-61
2023/04/23 10:11:52;;;;;;;6.50;1.90;;;;;;;19.02;37.04;99401.79;79297;1300;3013735;-60
2023/04/23 10:14:20;;;;;;;9.90;2.80;;;;;;;18.96;36.25;99400.58;79159;1297;3013011;-61
2023/04/23 10:16:50;;;;;;;7.40;3.00;;;;;;;18.59;35.82;99409.75;78157;1300;3056889;-60
2023/04/23 10:19:21;;;;;;;5.60;2.40;;;;;;;18.55;35.82;99409.11;79286;1297;3012673;-62
2023/04/23 10:21:59;;;;;;;7.90;2.60;;;;;;;18.64;35.23;99409.13;78093;1300;3053323;-58
2023/04/23 10:24:29;;;;;;;11.70;2.50;;;;;;;18.30;36.30;99408.20;77944;1300;3049417;-60
2023/04/23 10:26:58;;;;;;;5.20;2.10;;;;;;;18.21;35.78;99406.80;79261;1300;3013246;-60
2023/04/23 10:29:28;;;;;;;4.90;2.30;;;;;;;18.39;35.44;99407.09;78060;1298;3051761;-59
2023/04/23 10:31:55;;;;;;;8.40;2.80;;;;;;;18.73;34.90;99405.24;79317;1300;3013859;-61
2023/04/23 10:34:23;;;;;;;7.70;2.40;;;;;;;19.03;35.18;99399.70;79178;1300;3013018;-63
2023/04/23 10:36:51;;;;;;;7.80;2.30;;;;;;;19.09;34.77;99400.00;78033;1300;3051665;-58
2023/04/23 10:39:19;;;;;;;6.10;2.40;;;;;;;19.00;34.97;99399.11;79149;1300;3012922;-61
2023/04/23 10:41:46;;;;;;;10.00;2.60;;;;;;;19.04;35.13;99400.21;79295;1297;3011604;-61
2023/04/23 10:44:17;;;;;;;7.20;2.60;;;;;;;19.29;35.43;99398.15;78193;1302;3053204;-60
2023/04/23 10:46:55;;;;;;;6.90;2.60;;;;;;;19.57;34.81;99395.34;79231;1300;3011757;-61
2023/04/23 10:49:23;;;;;;;10.40;2.90;;;;;;;19.71;33.74;99390.91;77995;1296;3051506;-60
2023/04/23 10:52:06;;;;;;;6.80;2.60;;;;;;;19.80;34.00;99389.89;79351;1297;3013760;-60
2023/04/23 10:54:35;;;;;;;10.30;2.30;;;;;;;19.87;34.46;99389.33;77981;1300;3051701;-61
2023/04/23 10:57:03;;;;;;;5.80;2.60;;;;;;;19.76;35.02;99387.79;79444;1300;3013552;-61
2023/04/23 10:59:31;;;;;;;8.30;3.30;;;;;;;19.44;34.16;99393.09;79341;1297;3013181;-60
2023/04/23 11:02:06;;;;;;;5.30;3.40;;;;;;;19.07;34.03;99390.98;78183;1300;3068607;-62
2023/04/23 11:04:35;;;;;;;7.10;3.20;;;;;;;18.68;34.26;99389.98;77869;1297;3050972;-61
2023/04/23 11:07:08;;;;;;;7.90;2.90;;;;;;;18.48;35.00;99385.13;79640;1297;3013986;-61
2023/04/23 11:09:45;;;;;;;9.00;3.80;;;;;;;18.43;35.37;99384.46;78120;1297;3051923;-56
2023/04/23 11:12:30;;;;;;;10.30;2.80;;;;;;;18.53;35.39;99385.67;78015;1301;3050731;-59
2023/04/23 11:15:00;;;;;;;6.40;2.40;;;;;;;18.71;34.28;99388.29;78061;1300;3053360;-61
2023/04/23 11:17:30;;;;;;;7.90;2.00;;;;;;;18.91;34.15;99385.30;79232;1303;3011928;-61
2023/04/23 11:20:14;;;;;;;4.60;2.10;;;;;;;18.91;33.99;99377.08;77993;1300;3068262;-60